Time;durP1;ratioP1;P1;durP2;ratioP2;P2;SDS_P1;SDS_P2;PMS_P1;PMS_P2;Temp;Humidity;BMP_temperature;BMP_pressure;BME280_temperature;BME280_humidity;BME280_pressure;Samples;Min_cycle;Max_cycle;Signal;HPM_P1;HPM_P2
2021/04/09 00:02:06;;;;;;;6.10;4.55;;;4.10;98.60;;;;;;4881008;29;20287;-78
2021/04/09 00:04:31;;;;;;;8.05;4.30;;;4.10;98.80;;;;;;4867153;29;20048;-79
2021/04/09 00:06:57;;;;;;;8.95;4.38;;;4.10;98.90;;;;;;4863481;29;20450;-79
2021/04/09 00:09:23;;;;;;;9.18;4.43;;;4.10;98.90;;;;;;4876338;29;20034;-81
2021/04/09 00:11:49;;;;;;;7.88;4.65;;;4.00;99.20;;;;;;4876156;29;20029;-80
2021/04/09 00:14:16;;;;;;;9.80;4.32;;;4.00;99.40;;;;;;4874269;29;20030;-80
2021/04/09 00:16:42;;;;;;;8.02;4.90;;;4.00;99.70;;;;;;4866677;29;20041;-80
2021/04/09 00:19:10;;;;;;;8.18;4.68;;;3.90;99.50;;;;;;4864551;29;20025;-80
2021/04/09 00:21:36;;;;;;;9.07;5.18;;;3.90;99.60;;;;;;4871695;29;20032;-79
2021/04/09 00:24:02;;;;;;;10.05;4.35;;;3.80;99.80;;;;;;4875302;29;20029;-80
2021/04/09 00:26:28;;;;;;;8.00;4.47;;;3.80;99.90;;;;;;4888477;29;20029;-80
2021/04/09 00:28:56;;;;;;;7.25;3.83;;;3.60;99.90;;;;;;4898619;29;20121;-79
2021/04/09 00:31:22;;;;;;;7.30;4.43;;;3.80;99.90;;;;;;4873920;29;20021;-79
2021/04/09 00:33:48;;;;;;;7.30;4.22;;;3.70;99.90;;;;;;4881406;29;20026;-79
2021/04/09 00:36:13;;;;;;;7.95;4.80;;;3.70;99.90;;;;;;4882774;29;20052;-79
2021/04/09 00:38:39;;;;;;;9.25;4.05;;;3.70;99.90;;;;;;4871508;29;20037;-79
2021/04/09 00:41:05;;;;;;;7.93;4.13;;;3.60;99.90;;;;;;4874042;29;20025;-80
2021/04/09 00:43:31;;;;;;;6.88;4.00;;;3.50;99.90;;;;;;4873589;29;20389;-79
2021/04/09 00:45:56;;;;;;;6.35;3.80;;;3.50;99.90;;;;;;4882955;29;20440;-80
2021/04/09 00:48:22;;;;;;;8.02;3.78;;;3.50;99.90;;;;;;4865129;29;20065;-80
2021/04/09 00:50:47;;;;;;;7.90;4.45;;;3.50;99.90;;;;;;4883646;29;20049;-80
2021/04/09 00:53:15;;;;;;;6.30;3.95;;;3.40;99.90;;;;;;4871893;29;20033;-80
2021/04/09 00:55:41;;;;;;;6.30;4.20;;;3.40;99.90;;;;;;4874346;29;20021;-80
2021/04/09 00:58:10;;;;;;;6.22;4.70;;;3.30;99.90;;;;;;4869989;29;20033;-79
2021/04/09 01:00:36;;;;;;;10.25;5.60;;;3.30;99.90;;;;;;4879602;29;20034;-80
2021/04/09 01:03:01;;;;;;;7.95;4.50;;;3.30;99.90;;;;;;4873625;29;20089;-79
2021/04/09 01:05:27;;;;;;;7.30;4.22;;;3.30;99.90;;;;;;4885389;29;20037;-80
2021/04/09 01:07:54;;;;;;;8.38;4.85;;;3.20;99.90;;;;;;4891919;29;20136;-80
2021/04/09 01:10:21;;;;;;;6.32;4.28;;;3.20;99.90;;;;;;4860228;29;20086;-80
2021/04/09 01:12:49;;;;;;;7.35;4.30;;;3.20;99.90;;;;;;4871557;29;20030;-80
2021/04/09 01:15:16;;;;;;;5.72;4.20;;;3.10;99.90;;;;;;4885040;29;20089;-80
2021/04/09 01:17:53;;;;;;;7.18;4.38;;;3.10;99.90;;;;;;4865040;29;20037;-80
2021/04/09 01:20:19;;;;;;;6.50;4.18;;;3.10;99.90;;;;;;4882197;29;20041;-79
2021/04/09 01:23:02;;;;;;;6.47;4.40;;;3.10;99.90;;;;;;4878290;29;20033;-80
2021/04/09 01:25:56;;;;;;;7.32;4.95;;;3.10;99.90;;;;;;4875965;29;20033;-80
2021/04/09 01:28:25;;;;;;;7.32;4.68;;;3.00;99.90;;;;;;4866774;29;20041;-80
2021/04/09 01:31:12;;;;;;;5.85;4.30;;;3.10;99.90;;;;;;4881326;29;20477;-81
2021/04/09 01:33:43;;;;;;;6.40;5.00;;;3.00;99.90;;;;;;4863815;29;20029;-80
2021/04/09 01:36:12;;;;;;;8.52;4.68;;;3.00;99.90;;;;;;4869407;29;20089;-80
2021/04/09 01:38:43;;;;;;;7.57;5.25;;;3.00;99.90;;;;;;4854454;29;20029;-80
2021/04/09 01:41:11;;;;;;;9.10;4.80;;;2.90;99.90;;;;;;4869355;29;20575;-80
2021/04/09 01:43:39;;;;;;;7.63;4.30;;;2.90;99.90;;;;;;4874936;29;20041;-79
2021/04/09 01:46:08;;;;;;;6.65;4.70;;;3.00;99.90;;;;;;4872193;29;20076;-80
2021/04/09 01:48:38;;;;;;;6.60;4.15;;;3.00;99.90;;;;;;4873488;29;20064;-80
2021/04/09 01:51:07;;;;;;;7.22;4.40;;;3.00;99.90;;;;;;4876451;29;20441;-80
2021/04/09 01:53:33;;;;;;;6.22;4.40;;;3.00;99.90;;;;;;4862907;29;20044;-80
2021/04/09 01:55:59;;;;;;;9.25;5.00;;;3.00;99.90;;;;;;4871041;29;20033;-80
2021/04/09 01:58:27;;;;;;;6.43;4.20;;;3.00;99.90;;;;;;4867620;29;20025;-79
2021/04/09 02:00:53;;;;;;;6.88;4.25;;;2.90;99.90;;;;;;4877523;29;20030;-80
2021/04/09 02:03:22;;;;;;;5.30;4.22;;;2.90;99.90;;;;;;4883644;29;20509;-79
2021/04/09 02:05:48;;;;;;;9.63;4.07;;;2.90;99.90;;;;;;4882062;29;20025;-80
2021/04/09 02:08:15;;;;;;;7.38;4.25;;;2.90;99.90;;;;;;4879040;29;20049;-79
2021/04/09 02:10:41;;;;;;;7.00;4.97;;;2.90;99.90;;;;;;4864098;29;20511;-81
2021/04/09 02:13:08;;;;;;;6.07;4.18;;;2.90;99.90;;;;;;4886707;29;20041;-80
2021/04/09 02:15:34;;;;;;;8.15;4.13;;;2.90;99.90;;;;;;4872762;29;20033;-79
2021/04/09 02:18:00;;;;;;;6.70;4.20;;;2.90;99.90;;;;;;4868073;29;20480;-80
2021/04/09 02:20:25;;;;;;;10.23;4.25;;;2.80;99.90;;;;;;4870585;29;20033;-80
2021/04/09 02:22:52;;;;;;;5.25;4.22;;;2.80;99.90;;;;;;4877218;29;20045;-80
2021/04/09 02:25:22;;;;;;;7.88;4.30;;;2.80;99.90;;;;;;4864780;29;20040;-79
2021/04/09 02:27:50;;;;;;;8.40;4.22;;;2.70;99.90;;;;;;4872770;29;20053;-80
2021/04/09 02:30:18;;;;;;;6.15;4.00;;;2.80;99.90;;;;;;4862816;29;20054;-79
2021/04/09 02:32:44;;;;;;;6.95;4.03;;;2.80;99.90;;;;;;4869432;29;20030;-80
2021/04/09 02:35:13;;;;;;;5.95;3.75;;;2.70;99.90;;;;;;4866940;29;20112;-80
2021/04/09 02:37:43;;;;;;;11.52;5.03;;;2.70;99.90;;;;;;4868278;29;20038;-80
2021/04/09 02:40:18;;;;;;;9.07;3.65;;;2.70;99.90;;;;;;4871025;29;20049;-79
2021/04/09 02:42:46;;;;;;;7.25;4.28;;;2.70;99.90;;;;;;4864532;29;20025;-80
2021/04/09 02:45:14;;;;;;;9.77;4.55;;;2.70;99.90;;;;;;4865673;29;20057;-81
2021/04/09 02:47:41;;;;;;;5.47;3.70;;;2.70;99.90;;;;;;4872829;29;20033;-79
2021/04/09 02:50:23;;;;;;;7.22;4.22;;;2.70;99.90;;;;;;4867675;29;20368;-80
2021/04/09 02:52:56;;;;;;;6.50;3.72;;;2.70;99.90;;;;;;4854919;29;20029;-80
2021/04/09 02:55:26;;;;;;;6.25;4.07;;;2.60;99.90;;;;;;4867965;29;20037;-80
2021/04/09 02:57:53;;;;;;;5.70;3.95;;;2.60;99.90;;;;;;4870515;29;20029;-80
2021/04/09 03:00:20;;;;;;;10.15;4.85;;;2.60;99.90;;;;;;4868089;29;20034;-78
2021/04/09 03:02:47;;;;;;;7.03;3.83;;;2.60;99.90;;;;;;4873318;29;20042;-80
2021/04/09 03:05:14;;;;;;;8.43;4.43;;;2.60;99.90;;;;;;4871128;29;20120;-80
2021/04/09 03:07:41;;;;;;;5.65;4.05;;;2.60;99.90;;;;;;4871930;29;20037;-79
2021/04/09 03:10:17;;;;;;;6.75;4.15;;;2.60;99.90;;;;;;4876600;29;20033;-80
2021/04/09 03:12:43;;;;;;;8.82;4.60;;;2.60;99.90;;;;;;4871764;29;20080;-79
2021/04/09 03:15:22;;;;;;;6.35;4.25;;;2.60;99.90;;;;;;4870430;29;20029;-79
2021/04/09 03:17:53;;;;;;;6.18;4.68;;;2.60;99.90;;;;;;4873941;29;20030;-80
2021/04/09 03:20:19;;;;;;;;;;;2.60;99.90;;;;;;4867478;29;20038;-79
2021/04/09 03:22:45;;;;;;;6.75;3.53;;;2.60;99.90;;;;;;4866296;29;19917;-79
2021/04/09 03:25:11;;;;;;;8.95;4.18;;;2.60;99.90;;;;;;4865593;29;20034;-79
2021/04/09 03:27:36;;;;;;;8.13;4.43;;;2.50;99.90;;;;;;4856954;29;20044;-80
2021/04/09 03:30:03;;;;;;;8.38;4.53;;;2.50;99.90;;;;;;4866478;29;20057;-80
2021/04/09 03:32:29;;;;;;;8.30;4.57;;;2.50;99.90;;;;;;4874120;29;20034;-80
2021/04/09 03:34:54;;;;;;;8.18;4.65;;;2.40;99.90;;;;;;4856873;29;20136;-79
2021/04/09 03:37:20;;;;;;;6.00;3.92;;;2.40;99.90;;;;;;4864948;29;20041;-79
2021/04/09 03:39:46;;;;;;;6.35;4.70;;;2.40;99.90;;;;;;4830177;29;20101;-79
2021/04/09 03:42:12;;;;;;;8.40;4.28;;;2.40;99.90;;;;;;4861216;29;20033;-79
2021/04/09 03:44:37;;;;;;;6.25;4.00;;;2.40;99.90;;;;;;4878555;29;20026;-79
2021/04/09 03:47:03;;;;;;;7.53;4.80;;;2.40;99.90;;;;;;4883739;29;20060;-79
2021/04/09 03:49:29;;;;;;;7.20;4.63;;;2.40;99.90;;;;;;4875860;29;20037;-80
2021/04/09 03:51:55;;;;;;;9.30;4.30;;;2.40;99.90;;;;;;4862497;29;20040;-79
2021/04/09 03:54:21;;;;;;;9.65;4.75;;;2.40;99.90;;;;;;4874674;29;20038;-80
2021/04/09 03:56:46;;;;;;;9.88;5.03;;;2.40;99.90;;;;;;4859584;29;20460;-80
2021/04/09 03:59:12;;;;;;;10.35;4.72;;;2.40;99.90;;;;;;4875700;29;20062;-79
2021/04/09 04:01:38;;;;;;;9.40;4.88;;;2.40;99.90;;;;;;4871806;29;20037;-80
2021/04/09 04:04:04;;;;;;;8.65;4.82;;;2.40;99.90;;;;;;4874692;29;20068;-80
2021/04/09 04:06:30;;;;;;;9.77;4.93;;;2.40;99.90;;;;;;4875336;29;20030;-80
2021/04/09 04:08:55;;;;;;;6.82;4.80;;;2.40;99.90;;;;;;4873562;29;20495;-79
2021/04/09 04:11:21;;;;;;;6.28;4.55;;;2.50;99.90;;;;;;4871507;29;20026;-76
2021/04/09 04:13:47;;;;;;;20.25;5.35;;;2.40;99.90;;;;;;4871254;29;20043;-76
2021/04/09 04:16:13;;;;;;;7.32;4.53;;;;;;;;;;4870923;29;20045;-76
2021/04/09 04:18:38;;;;;;;7.85;5.15;;;2.30;99.90;;;;;;4866632;29;20504;-76
2021/04/09 04:21:04;;;;;;;6.07;4.75;;;2.30;99.90;;;;;;4868998;29;20097;-76
2021/04/09 04:23:30;;;;;;;10.15;4.93;;;2.40;99.90;;;;;;4866183;29;20485;-75
2021/04/09 04:25:55;;;;;;;8.07;5.45;;;2.30;99.90;;;;;;4870973;29;20032;-77
2021/04/09 04:28:22;;;;;;;7.55;4.43;;;2.30;99.90;;;;;;4870102;29;20041;-76
2021/04/09 04:30:51;;;;;;;6.32;4.18;;;2.30;99.90;;;;;;4874024;29;20040;-77
2021/04/09 04:33:20;;;;;;;7.53;4.97;;;2.30;99.90;;;;;;4872736;29;20085;-76
2021/04/09 04:35:47;;;;;;;7.05;4.82;;;2.30;99.90;;;;;;4875818;29;20029;-76
2021/04/09 04:38:22;;;;;;;9.15;5.22;;;2.40;99.90;;;;;;4859177;29;20034;-76
2021/04/09 04:40:48;;;;;;;10.18;5.78;;;2.40;99.90;;;;;;4862648;29;20593;-75
2021/04/09 04:43:15;;;;;;;9.13;5.07;;;2.40;99.90;;;;;;4872550;29;20368;-76
2021/04/09 04:45:42;;;;;;;7.72;5.07;;;2.40;99.90;;;;;;4873912;29;20085;-75
2021/04/09 04:48:08;;;;;;;7.93;5.75;;;2.40;99.90;;;;;;4872620;29;20037;-75
2021/04/09 04:50:34;;;;;;;6.97;5.05;;;2.40;99.90;;;;;;4874537;29;20523;-78
2021/04/09 04:53:01;;;;;;;7.38;5.22;;;2.50;99.90;;;;;;4871556;29;20077;-77
2021/04/09 04:55:26;;;;;;;10.60;5.78;;;2.50;99.90;;;;;;4871198;29;20040;-77
2021/04/09 04:57:52;;;;;;;9.70;5.72;;;2.60;99.90;;;;;;4866391;29;20026;-76
2021/04/09 05:00:18;;;;;;;13.15;5.43;;;2.60;99.90;;;;;;4870262;29;20044;-75
2021/04/09 05:02:46;;;;;;;10.02;5.28;;;2.70;99.90;;;;;;4872212;29;20026;-76
2021/04/09 05:05:12;;;;;;;7.53;5.32;;;2.80;99.90;;;;;;4856029;29;20041;-76
2021/04/09 05:07:38;;;;;;;7.80;5.55;;;2.70;99.90;;;;;;4876092;29;20037;-76
2021/04/09 05:10:07;;;;;;;7.45;5.00;;;2.90;99.90;;;;;;4871058;29;20041;-76
2021/04/09 05:12:46;;;;;;;9.80;6.28;;;2.90;99.90;;;;;;4872902;29;20648;-79
2021/04/09 05:15:12;;;;;;;7.82;5.70;;;3.10;99.90;;;;;;4865796;29;20033;-75
2021/04/09 05:17:38;;;;;;;7.90;5.38;;;3.10;99.90;;;;;;4874491;29;20052;-77
2021/04/09 05:20:05;;;;;;;7.90;5.53;;;3.00;99.90;;;;;;4855732;29;20081;-76
2021/04/09 05:22:31;;;;;;;8.77;5.20;;;3.00;99.90;;;;;;4865855;29;20111;-76
2021/04/09 05:24:57;;;;;;;10.55;5.70;;;3.10;99.90;;;;;;4852355;29;20497;-79
2021/04/09 05:27:25;;;;;;;10.80;5.35;;;3.90;99.20;;;;;;4871087;29;20062;-77
2021/04/09 05:29:51;;;;;;;8.52;5.53;;;3.90;99.30;;;;;;4875971;29;20052;-77
2021/04/09 05:32:17;;;;;;;7.15;4.95;;;4.30;97.50;;;;;;4854039;29;20033;-76
2021/04/09 05:34:43;;;;;;;7.13;5.20;;;4.60;94.90;;;;;;4876506;29;20089;-75
2021/04/09 05:37:09;;;;;;;9.93;6.20;;;4.60;95.40;;;;;;4881442;29;20037;-76
2021/04/09 05:39:38;;;;;;;7.32;5.47;;;4.60;95.10;;;;;;4872725;29;20026;-77
2021/04/09 05:42:05;;;;;;;7.80;4.97;;;4.90;93.80;;;;;;4872352;29;20031;-77
2021/04/09 05:44:33;;;;;;;7.55;5.43;;;5.10;92.80;;;;;;4875641;29;20029;-75
2021/04/09 05:47:01;;;;;;;8.82;5.00;;;5.30;91.90;;;;;;4869280;29;20493;-76
2021/04/09 05:49:26;;;;;;;9.13;5.13;;;5.60;90.50;;;;;;4869874;29;20038;-76
2021/04/09 05:51:52;;;;;;;10.45;5.50;;;5.70;88.90;;;;;;4871256;29;20037;-78
2021/04/09 05:54:18;;;;;;;7.05;5.10;;;6.00;87.40;;;;;;4870430;29;20036;-78
2021/04/09 05:56:43;;;;;;;6.97;5.93;;;6.40;84.00;;;;;;4856450;29;20444;-79
2021/04/09 05:59:09;;;;;;;9.30;6.22;;;7.10;79.10;;;;;;4864807;29;20134;-79
2021/04/09 06:01:34;;;;;;;7.47;5.15;;;6.90;77.40;;;;;;4871630;29;20045;-78
2021/04/09 06:04:00;;;;;;;8.32;6.35;;;7.30;76.20;;;;;;4867937;29;20033;-82
2021/04/09 06:06:25;;;;;;;9.88;5.65;;;7.40;74.30;;;;;;4865653;29;20036;-76
2021/04/09 06:08:51;;;;;;;10.50;5.20;;;7.00;75.50;;;;;;4867762;29;20040;-77
2021/04/09 06:11:17;;;;;;;8.60;5.60;;;6.60;76.80;;;;;;4863472;29;20041;-75
2021/04/09 06:13:42;;;;;;;8.30;5.53;;;6.20;78.50;;;;;;4866024;29;20058;-75
2021/04/09 06:16:11;;;;;;;8.77;5.78;;;6.20;80.00;;;;;;4861663;29;20187;-78
2021/04/09 06:18:36;;;;;;;15.32;5.97;;;6.20;80.40;;;;;;4871810;29;20025;-76
2021/04/09 06:21:02;;;;;;;8.57;5.70;;;6.90;77.40;;;;;;4863616;29;20094;-75
2021/04/09 06:23:28;;;;;;;9.50;5.68;;;7.30;75.80;;;;;;4872966;29;20096;-77
2021/04/09 06:25:53;;;;;;;9.07;5.10;;;7.50;74.10;;;;;;4863202;29;20038;-76
2021/04/09 06:28:19;;;;;;;11.02;5.80;;;7.70;73.20;;;;;;4849673;29;20404;-77
2021/04/09 06:30:44;;;;;;;7.70;5.68;;;7.30;72.80;;;;;;4860061;29;20033;-77
2021/04/09 06:33:10;;;;;;;11.98;6.15;;;7.20;73.50;;;;;;4867112;29;20049;-76
2021/04/09 06:35:36;;;;;;;8.73;5.55;;;6.80;74.00;;;;;;4866651;29;20048;-77
2021/04/09 06:38:02;;;;;;;7.40;5.47;;;6.50;75.50;;;;;;4873321;29;20025;-76
2021/04/09 06:40:28;;;;;;;9.30;6.50;;;6.40;76.40;;;;;;4869751;29;20034;-76
2021/04/09 06:42:55;;;;;;;10.95;5.88;;;6.40;76.70;;;;;;4869546;29;20552;-78
2021/04/09 06:45:21;;;;;;;10.75;5.70;;;6.60;76.60;;;;;;4869112;29;20517;-76
2021/04/09 06:47:47;;;;;;;12.77;6.10;;;6.50;76.50;;;;;;4871705;29;20022;-75
2021/04/09 06:50:12;;;;;;;8.75;5.75;;;6.50;76.90;;;;;;4867690;29;20029;-77
2021/04/09 06:52:39;;;;;;;10.88;6.65;;;6.50;77.30;;;;;;4867738;29;20029;-76
2021/04/09 06:55:05;;;;;;;11.40;6.03;;;6.80;76.20;;;;;;4862316;29;20408;-77
2021/04/09 06:57:34;;;;;;;10.02;4.90;;;7.90;71.80;;;;;;4858835;29;20032;-79
2021/04/09 07:00:07;;;;;;;9.80;5.40;;;7.90;71.90;;;;;;4863679;29;20381;-80
2021/04/09 07:02:33;;;;;;;9.57;6.10;;;8.60;68.90;;;;;;4864953;29;20456;-76
2021/04/09 07:04:59;;;;;;;7.35;5.53;;;;;;;;;;4862695;29;20097;-77
2021/04/09 07:07:25;;;;;;;9.10;6.22;;;9.00;66.40;;;;;;4865215;29;20124;-75
2021/04/09 07:09:51;;;;;;;9.93;5.78;;;9.40;64.70;;;;;;4868886;29;20107;-78
2021/04/09 07:12:27;;;;;;;8.85;6.05;;;9.60;63.00;;;;;;4870205;29;20070;-74
2021/04/09 07:15:03;;;;;;;9.85;5.57;;;9.30;64.20;;;;;;4859118;29;22037;-79
2021/04/09 07:17:36;;;;;;;11.25;6.25;;;9.70;61.90;;;;;;4855126;29;20049;-77
2021/04/09 07:20:09;;;;;;;12.77;6.30;;;10.00;62.20;;;;;;4870425;29;20029;-77
2021/04/09 07:22:36;;;;;;;8.90;6.30;;;10.20;60.80;;;;;;4867088;29;20022;-79
2021/04/09 07:25:14;;;;;;;7.97;6.30;;;10.20;60.80;;;;;;4858300;29;20369;-77
2021/04/09 07:27:45;;;;;;;10.05;7.00;;;10.80;58.80;;;;;;4874204;29;20037;-79
2021/04/09 07:30:15;;;;;;;;;;;10.90;57.80;;;;;;4864885;29;20369;-80
2021/04/09 07:32:42;;;;;;;7.82;5.90;;;10.90;57.50;;;;;;4867391;29;19969;-76
2021/04/09 07:35:15;;;;;;;6.25;5.22;;;10.80;57.90;;;;;;4867365;29;20040;-81
2021/04/09 07:38:00;;;;;;;8.73;6.00;;;12.00;55.20;;;;;;4865027;29;20025;-83
2021/04/09 07:40:31;;;;;;;10.40;5.93;;;13.70;50.30;;;;;;4863712;29;20025;-78
2021/04/09 07:42:59;;;;;;;8.48;6.32;;;13.80;50.60;;;;;;4885225;29;20045;-79
2021/04/09 07:45:28;;;;;;;8.10;5.88;;;14.40;49.20;;;;;;4875334;29;20025;-78
2021/04/09 07:48:06;;;;;;;8.05;5.97;;;15.60;47.10;;;;;;4856739;29;20040;-77
2021/04/09 07:50:35;;;;;;;7.50;6.07;;;16.00;45.50;;;;;;4863224;29;20079;-77
2021/04/09 07:53:01;;;;;;;10.55;5.85;;;16.40;44.30;;;;;;4863881;29;20052;-78
2021/04/09 07:55:29;;;;;;;8.70;6.65;;;16.70;43.40;;;;;;4858247;29;20049;-78
2021/04/09 07:58:23;;;;;;;7.85;6.15;;;16.60;43.20;;;;;;4852692;29;20050;-79
2021/04/09 08:00:51;;;;;;;7.30;5.50;;;16.30;43.60;;;;;;4864851;29;20028;-81
2021/04/09 08:03:39;;;;;;;8.73;6.10;;;16.40;43.60;;;;;;4872428;29;20038;-80
2021/04/09 08:06:14;;;;;;;8.95;5.63;;;16.70;43.20;;;;;;4873857;29;20702;-77
2021/04/09 08:08:57;;;;;;;11.60;6.07;;;16.10;43.70;;;;;;4874365;29;20116;-76
2021/04/09 08:11:31;;;;;;;10.27;6.20;;;15.60;44.40;;;;;;4858337;29;20077;-76
2021/04/09 08:14:01;;;;;;;8.02;5.60;;;16.10;43.80;;;;;;4871184;29;20042;-77
2021/04/09 08:16:34;;;;;;;6.90;5.67;;;16.00;44.00;;;;;;4863680;29;20033;-75
2021/04/09 08:19:19;;;;;;;10.00;6.35;;;15.40;44.50;;;;;;4859693;29;20112;-77
2021/04/09 08:21:49;;;;;;;11.05;6.57;;;14.50;46.10;;;;;;4862798;29;20034;-76
2021/04/09 08:24:15;;;;;;;10.13;6.35;;;14.60;46.10;;;;;;4862995;29;20040;-80
2021/04/09 08:26:42;;;;;;;9.85;5.93;;;15.10;45.40;;;;;;4862822;29;20052;-80
2021/04/09 08:29:10;;;;;;;9.80;5.68;;;15.50;45.30;;;;;;4864144;29;20061;-79
2021/04/09 08:31:37;;;;;;;6.57;5.45;;;16.00;44.10;;;;;;4863349;29;20046;-76
2021/04/09 08:34:03;;;;;;;11.13;6.60;;;16.90;43.30;;;;;;4872278;29;20055;-77
2021/04/09 08:36:31;;;;;;;7.70;6.18;;;17.50;42.20;;;;;;4869897;29;20037;-75
2021/04/09 08:38:57;;;;;;;7.78;6.22;;;17.20;42.20;;;;;;4879566;29;20121;-78
2021/04/09 08:41:23;;;;;;;9.70;6.18;;;17.60;42.00;;;;;;4875685;29;20448;-79
2021/04/09 08:43:49;;;;;;;9.88;5.95;;;17.80;41.10;;;;;;4862585;29;20040;-77
2021/04/09 08:46:15;;;;;;;6.90;5.05;;;18.20;40.70;;;;;;4864848;29;20519;-76
2021/04/09 08:48:43;;;;;;;8.57;5.40;;;17.30;41.40;;;;;;4851786;29;20048;-76
2021/04/09 08:51:10;;;;;;;7.13;5.80;;;18.20;41.00;;;;;;4858132;29;20057;-75
2021/04/09 08:53:36;;;;;;;10.00;5.53;;;18.60;40.50;;;;;;4868080;29;20500;-74
2021/04/09 08:56:03;;;;;;;10.13;5.63;;;18.20;40.40;;;;;;4863518;29;20037;-74
2021/04/09 08:58:42;;;;;;;9.20;6.78;;;17.90;40.30;;;;;;4860461;29;20088;-74
2021/04/09 09:01:13;;;;;;;10.68;6.47;;;17.80;41.00;;;;;;4860156;29;20074;-75
2021/04/09 09:03:39;;;;;;;6.85;5.70;;;17.50;41.60;;;;;;4869442;29;20044;-75
2021/04/09 09:06:07;;;;;;;9.95;6.53;;;17.30;41.80;;;;;;4862959;29;20033;-77
2021/04/09 09:08:57;;;;;;;7.88;6.13;;;16.00;42.90;;;;;;4863313;29;20522;-76
2021/04/09 09:11:57;;;;;;;8.18;5.78;;;15.50;44.50;;;;;;4859690;29;20495;-77
2021/04/09 09:14:35;;;;;;;9.18;6.32;;;15.70;44.40;;;;;;4859448;29;20026;-78
2021/04/09 09:17:21;;;;;;;8.68;6.22;;;16.40;43.30;;;;;;4871855;29;20035;-77
2021/04/09 09:19:50;;;;;;;9.05;6.57;;;16.80;42.80;;;;;;4852427;29;20505;-75
2021/04/09 09:22:20;;;;;;;10.65;6.57;;;17.20;42.50;;;;;;4866162;29;20037;-75
2021/04/09 09:25:09;;;;;;;7.63;5.70;;;17.20;42.10;;;;;;4850295;29;20037;-77
2021/04/09 09:27:51;;;;;;;8.32;5.72;;;16.70;42.60;;;;;;4866568;29;20041;-75
2021/04/09 09:30:37;;;;;;;11.38;6.43;;;16.90;42.30;;;;;;4867351;29;20068;-75
2021/04/09 09:33:25;;;;;;;9.13;6.05;;;16.80;42.70;;;;;;4864735;29;20024;-77
2021/04/09 09:35:55;;;;;;;6.03;5.45;;;16.80;42.20;;;;;;4865365;29;20105;-77
2021/04/09 09:38:46;;;;;;;10.88;6.80;;;17.10;41.90;;;;;;4863015;29;20032;-77
2021/04/09 09:41:33;;;;;;;9.80;6.68;;;17.80;41.70;;;;;;4863167;29;20044;-74
2021/04/09 09:43:59;;;;;;;7.95;6.35;;;18.20;40.40;;;;;;4861307;29;20041;-74
2021/04/09 09:46:59;;;;;;;7.97;6.32;;;18.50;40.80;;;;;;4865751;29;20090;-74
2021/04/09 09:49:26;;;;;;;11.45;6.63;;;18.70;40.00;;;;;;4865648;29;20080;-75
2021/04/09 09:51:52;;;;;;;10.77;6.95;;;18.00;41.00;;;;;;4859136;29;20029;-75
2021/04/09 09:54:32;;;;;;;8.23;6.72;;;17.90;41.40;;;;;;4849468;29;20543;-75
2021/04/09 09:57:41;;;;;;;8.75;6.47;;;17.90;40.10;;;;;;4867191;29;20090;-74
2021/04/09 10:00:07;;;;;;;6.82;6.13;;;17.90;41.00;;;;;;4860899;29;20047;-75
2021/04/09 10:02:32;;;;;;;9.63;6.95;;;18.00;40.90;;;;;;4870908;29;20037;-74
2021/04/09 10:04:59;;;;;;;8.88;7.03;;;17.70;40.90;;;;;;4855657;29;20055;-74
2021/04/09 10:07:25;;;;;;;7.00;6.28;;;17.70;41.10;;;;;;4871169;29;20036;-74
2021/04/09 10:09:53;;;;;;;9.60;6.85;;;17.00;41.70;;;;;;4869891;29;20030;-76
2021/04/09 10:12:22;;;;;;;9.40;6.28;;;17.00;42.10;;;;;;4874568;29;20029;-76
2021/04/09 10:14:52;;;;;;;9.77;6.85;;;17.00;42.10;;;;;;4853922;29;20045;-74
2021/04/09 10:17:40;;;;;;;11.50;7.82;;;17.40;40.90;;;;;;4857035;29;20068;-76
2021/04/09 10:20:06;;;;;;;9.95;6.55;;;17.40;41.40;;;;;;4863399;29;20119;-76
2021/04/09 10:22:32;;;;;;;8.48;6.72;;;17.10;42.40;;;;;;4873483;29;20047;-75
2021/04/09 10:24:58;;;;;;;12.10;6.75;;;17.70;41.80;;;;;;4871500;29;20121;-74
2021/04/09 10:27:26;;;;;;;9.90;6.93;;;18.30;41.00;;;;;;4866018;29;20050;-74
2021/04/09 10:29:52;;;;;;;8.35;6.95;;;18.90;41.10;;;;;;4865742;29;20105;-74
2021/04/09 10:32:20;;;;;;;7.97;6.22;;;19.20;40.60;;;;;;4859845;29;20129;-73
2021/04/09 10:34:47;;;;;;;10.65;5.95;;;17.80;40.70;;;;;;4843050;29;20029;-78
2021/04/09 10:37:24;;;;;;;6.13;5.20;;;17.70;41.10;;;;;;4869256;29;20496;-75
2021/04/09 10:39:51;;;;;;;6.63;5.60;;;16.80;41.90;;;;;;4861974;29;20442;-78
2021/04/09 10:42:17;;;;;;;7.05;5.88;;;16.80;42.20;;;;;;4863890;29;20035;-76
2021/04/09 10:44:43;;;;;;;6.45;5.43;;;17.20;42.50;;;;;;4849130;29;20025;-75
2021/04/09 10:47:12;;;;;;;6.75;5.80;;;17.70;42.00;;;;;;4838148;29;20565;-75
2021/04/09 10:49:40;;;;;;;7.82;5.70;;;17.30;42.60;;;;;;4849600;29;20093;-74
2021/04/09 10:52:14;;;;;;;12.18;6.68;;;17.90;41.40;;;;;;4847549;29;20109;-85
2021/04/09 10:54:47;;;;;;;8.32;6.30;;;17.90;42.00;;;;;;4860790;29;20037;-75
2021/04/09 10:57:20;;;;;;;7.43;6.03;;;17.80;41.60;;;;;;4866571;29;20104;-76
2021/04/09 10:59:53;;;;;;;8.20;6.28;;;18.40;40.70;;;;;;4861374;29;20504;-77
2021/04/09 11:02:26;;;;;;;8.15;6.13;;;19.20;39.80;;;;;;4855014;29;20411;-79
2021/04/09 11:04:54;;;;;;;7.85;6.18;;;19.30;40.10;;;;;;4875991;29;20025;-80
2021/04/09 11:07:20;;;;;;;9.18;5.90;;;19.60;39.00;;;;;;4874782;29;20041;-76
2021/04/09 11:09:47;;;;;;;7.82;6.20;;;19.60;39.50;;;;;;4877717;29;20036;-76
2021/04/09 11:12:24;;;;;;;13.32;8.18;;;19.30;40.00;;;;;;4859433;29;20022;-76
2021/04/09 11:15:10;;;;;;;8.68;6.57;;;18.80;40.30;;;;;;4857626;29;20163;-76
2021/04/09 11:17:37;;;;;;;5.97;5.38;;;18.60;40.90;;;;;;4855507;29;20029;-78
2021/04/09 11:20:19;;;;;;;7.68;5.80;;;18.60;40.60;;;;;;4875210;29;20097;-76
2021/04/09 11:22:45;;;;;;;7.72;5.72;;;18.50;40.90;;;;;;4868865;29;20033;-79
2021/04/09 11:25:12;;;;;;;9.20;8.30;;;18.90;40.90;;;;;;4854665;29;20029;-79
2021/04/09 11:27:44;;;;;;;9.75;6.63;;;19.30;40.90;;;;;;4865548;29;20033;-79
2021/04/09 11:30:17;;;;;;;11.93;7.05;;;19.30;40.30;;;;;;4852885;29;20045;-80
2021/04/09 11:32:52;;;;;;;7.28;5.90;;;19.20;40.30;;;;;;4851443;29;20497;-79
2021/04/09 11:35:19;;;;;;;7.38;6.30;;;19.20;40.90;;;;;;4869796;29;20035;-78
2021/04/09 11:37:52;;;;;;;10.13;6.88;;;19.50;40.10;;;;;;4856848;29;20050;-80
2021/04/09 11:40:41;;;;;;;8.90;6.68;;;19.50;40.30;;;;;;4853992;29;20035;-78
2021/04/09 11:43:08;;;;;;;8.05;6.35;;;19.60;39.70;;;;;;4869953;29;20092;-79
2021/04/09 11:45:46;;;;;;;7.93;5.90;;;19.00;40.30;;;;;;4870662;29;20026;-79
2021/04/09 11:48:26;;;;;;;9.88;7.85;;;18.90;40.70;;;;;;4860843;29;20104;-79
2021/04/09 11:50:53;;;;;;;8.82;5.38;;;19.20;40.70;;;;;;4852492;29;20047;-78
2021/04/09 11:53:19;;;;;;;6.28;5.30;;;19.10;40.50;;;;;;4865648;29;20508;-78
2021/04/09 11:55:47;;;;;;;7.97;5.80;;;19.70;40.30;;;;;;4851873;29;20069;-79
2021/04/09 11:58:26;;;;;;;7.50;5.20;;;20.20;38.90;;;;;;4867973;29;20022;-79
2021/04/09 12:01:01;;;;;;;6.68;5.53;;;20.50;38.60;;;;;;4874229;29;20485;-78
2021/04/09 12:03:44;;;;;;;8.05;5.10;;;20.40;39.10;;;;;;4858000;29;20022;-78
2021/04/09 12:06:19;;;;;;;8.80;5.85;;;19.90;39.60;;;;;;4863427;29;20021;-78
2021/04/09 12:08:46;;;;;;;6.68;5.95;;;20.30;39.40;;;;;;4866071;29;20045;-78
2021/04/09 12:11:12;;;;;;;8.02;5.03;;;20.30;39.40;;;;;;4853040;29;20100;-78
2021/04/09 12:13:42;;;;;;;8.15;5.50;;;19.70;39.20;;;;;;4858001;29;20033;-79
2021/04/09 12:16:08;;;;;;;6.80;4.50;;;18.20;41.60;;;;;;4867941;29;20109;-80
2021/04/09 12:18:34;;;;;;;7.57;4.45;;;17.90;42.70;;;;;;4868384;29;20142;-77
2021/04/09 12:21:00;;;;;;;9.95;7.90;;;18.50;41.80;;;;;;4860763;29;20077;-76
2021/04/09 12:23:26;;;;;;;7.20;5.82;;;19.60;40.90;;;;;;4856740;29;20153;-77
2021/04/09 12:25:58;;;;;;;6.15;4.40;;;20.60;39.50;;;;;;4861126;29;20029;-78
2021/04/09 12:28:23;;;;;;;5.90;5.30;;;21.60;38.00;;;;;;4857301;29;20048;-77
2021/04/09 12:30:49;;;;;;;11.73;6.65;;;20.50;38.40;;;;;;4862399;29;20128;-76
2021/04/09 12:33:15;;;;;;;8.25;5.72;;;19.70;39.90;;;;;;4842781;29;20578;-77
2021/04/09 12:35:40;;;;;;;8.48;5.70;;;19.30;40.30;;;;;;4860928;29;20439;-78
2021/04/09 12:38:06;;;;;;;7.43;5.85;;;19.90;39.80;;;;;;4854252;29;20056;-75
2021/04/09 12:40:31;;;;;;;8.07;5.93;;;20.10;39.70;;;;;;4858190;29;20048;-77
2021/04/09 12:42:59;;;;;;;9.43;6.45;;;20.60;38.90;;;;;;4867618;29;20120;-78
2021/04/09 12:45:25;;;;;;;7.65;6.07;;;20.90;38.60;;;;;;4873848;29;20053;-80
2021/04/09 12:47:50;;;;;;;7.47;5.82;;;21.10;38.60;;;;;;4863727;29;20507;-79
2021/04/09 12:50:16;;;;;;;9.13;6.30;;;19.80;39.20;;;;;;4878553;29;20060;-78
2021/04/09 12:52:42;;;;;;;7.85;6.00;;;19.20;40.10;;;;;;4872810;29;20055;-77
2021/04/09 12:55:08;;;;;;;8.30;6.78;;;18.90;40.00;;;;;;4864097;29;20049;-81
2021/04/09 12:57:34;;;;;;;8.95;6.35;;;18.00;41.30;;;;;;4853810;29;20052;-78
2021/04/09 13:00:44;;;;;;;10.15;7.07;;;18.20;41.50;;;;;;4858047;29;20034;-81
2021/04/09 13:03:10;;;;;;;11.77;7.68;;;17.30;42.40;;;;;;4842864;29;20049;-78
2021/04/09 13:05:35;;;;;;;10.10;7.00;;;16.70;43.50;;;;;;4861964;29;20033;-78